createdAt,value
2022-08-28T00:05:43.038Z,51.04
2022-08-28T00:10:03.514Z,52.62
2022-08-28T00:14:37.183Z,52.45
2022-08-28T00:18:56.934Z,51.99
2022-08-28T00:23:49.022Z,52.52
2022-08-28T00:28:34.781Z,52.86
2022-08-28T00:33:36.609Z,54.32
2022-08-28T00:38:01.395Z,54.71
2022-08-28T00:43:01.586Z,55.32
2022-08-28T00:47:27.068Z,55.49
2022-08-28T00:52:22.495Z,54.73
2022-08-28T01:02:42.867Z,55.98
2022-08-28T01:07:29.303Z,57.02
2022-08-28T01:12:30.747Z,57.97
2022-08-28T01:17:04.189Z,58.61
2022-08-28T01:21:58.475Z,58.13
2022-08-28T01:26:49.803Z,56.00
2022-08-28T01:31:15.170Z,53.52
2022-08-28T01:35:49.533Z,53.80
2022-08-28T01:40:08.937Z,54.30
2022-08-28T01:44:38.106Z,53.45
2022-08-28T01:49:34.602Z,51.60
2022-08-28T01:54:04.475Z,52.20
2022-08-28T01:58:38.996Z,51.80
2022-08-28T02:03:13.477Z,51.23
2022-08-28T02:07:43.651Z,51.46
2022-08-28T02:11:55.149Z,52.54
2022-08-28T02:16:51.404Z,53.44
2022-08-28T02:21:17.365Z,53.02
2022-08-28T02:25:39.994Z,53.55
2022-08-28T02:30:19.509Z,54.32
2022-08-28T02:34:48.700Z,54.20
2022-08-28T02:39:06.265Z,53.90
2022-08-28T02:43:34.751Z,53.80
2022-08-28T02:47:56.185Z,54.72
2022-08-28T02:52:28.255Z,54.96
2022-08-28T02:56:47.926Z,56.67
2022-08-28T03:01:18.989Z,57.86
2022-08-28T03:05:47.046Z,57.76
2022-08-28T03:10:21.003Z,56.56
2022-08-28T03:14:47.603Z,56.42
2022-08-28T03:19:16.253Z,54.62
2022-08-28T03:23:42.991Z,54.19
2022-08-28T03:28:08.788Z,53.74
2022-08-28T03:32:37.901Z,55.46
2022-08-28T03:37:19.669Z,55.96
2022-08-28T03:47:02.504Z,54.69
2022-08-28T03:51:57.629Z,55.30
2022-08-28T03:56:38.153Z,55.37
2022-08-28T04:01:10.577Z,56.19
2022-08-28T04:05:28.643Z,56.14
2022-08-28T04:10:28.218Z,56.09
2022-08-28T04:14:59.388Z,55.21
2022-08-28T04:19:16.625Z,54.53
2022-08-28T04:28:48.485Z,52.61
2022-08-28T04:33:03.304Z,50.45
2022-08-28T04:37:42.949Z,49.15
2022-08-28T04:42:14.941Z,48.93
2022-08-28T04:46:31.142Z,46.04
2022-08-28T04:51:07.851Z,45.36
2022-08-28T04:55:48.488Z,44.68
2022-08-28T05:00:06.990Z,44.08
2022-08-28T05:04:19.918Z,42.86
2022-08-28T05:08:37.024Z,42.89
2022-08-28T05:12:50.504Z,42.35
2022-08-28T05:17:00.141Z,40.88
2022-08-28T05:21:20.202Z,40.68
2022-08-28T05:25:32.450Z,39.68
2022-08-28T05:29:36.991Z,40.58
2022-08-28T05:33:39.875Z,41.24
2022-08-28T05:37:59.262Z,41.63
2022-08-28T05:42:10.351Z,41.51
2022-08-28T05:46:16.444Z,40.83
2022-08-28T05:50:22.688Z,41.64
2022-08-28T05:54:42.179Z,41.49
2022-08-28T05:59:12.317Z,41.27
2022-08-28T06:03:50.267Z,41.33
2022-08-28T06:08:19.298Z,41.32
2022-08-28T06:13:23.299Z,41.55
2022-08-28T06:18:00.187Z,41.09
2022-08-28T06:22:19.101Z,40.38
2022-08-28T06:26:25.073Z,40.71
2022-08-28T06:30:31.660Z,40.98
2022-08-28T06:34:42.243Z,40.75
2022-08-28T06:39:04.865Z,39.99
2022-08-28T06:43:06.570Z,40.29
2022-08-28T06:47:30.741Z,38.51
2022-08-28T06:51:36.891Z,37.39
2022-08-28T06:56:07.412Z,36.00
2022-08-28T07:00:36.184Z,35.45
2022-08-28T07:04:59.776Z,35.60
2022-08-28T07:09:06.695Z,34.41
2022-08-28T07:13:09.312Z,34.10
2022-08-28T07:17:52.758Z,33.72
2022-08-28T07:27:28.864Z,33.65
2022-08-28T07:37:17.662Z,33.58
2022-08-28T07:52:37.891Z,31.87
2022-08-28T08:03:00.281Z,30.97
2022-08-28T08:07:31.957Z,31.49
2022-08-28T08:12:05.302Z,31.09
2022-08-28T08:16:48.229Z,31.13
2022-08-28T08:21:10.889Z,30.00
2022-08-28T08:26:05.189Z,30.10
2022-08-28T08:35:16.060Z,29.86
2022-08-28T08:44:56.100Z,27.96
2022-08-28T08:49:23.903Z,27.89
2022-08-28T08:54:30.324Z,27.67
2022-08-28T08:58:59.775Z,28.16
2022-08-28T09:18:46.495Z,28.00
2022-08-28T09:23:13.993Z,28.61
2022-08-28T09:28:32.297Z,26.16
2022-08-28T09:33:59.402Z,26.02
2022-08-28T09:39:28.452Z,26.96
2022-08-28T09:54:34.602Z,25.75
2022-08-28T09:59:53.934Z,23.17
2022-08-28T10:05:35.981Z,23.12
2022-08-28T10:25:01.967Z,22.71
2022-08-28T10:29:17.769Z,22.71
2022-08-28T10:33:32.384Z,22.08
2022-08-28T10:37:51.360Z,22.77
2022-08-28T10:41:59.944Z,21.69
2022-08-28T10:46:03.544Z,21.33
2022-08-28T10:50:10.690Z,21.40
2022-08-28T10:54:22.557Z,21.66
2022-08-28T10:58:28.878Z,21.89
2022-08-28T11:02:56.746Z,21.13
2022-08-28T11:07:00.819Z,21.80
2022-08-28T11:11:02.858Z,22.17
2022-08-28T11:15:44.397Z,21.81
2022-08-28T11:20:12.131Z,23.69
2022-08-28T11:24:25.473Z,22.10
2022-08-28T11:28:48.399Z,21.63
2022-08-28T11:33:03.003Z,23.00
2022-08-28T11:37:08.412Z,21.98
2022-08-28T11:41:39.131Z,21.69
2022-08-28T11:46:24.123Z,22.23
2022-08-28T11:50:56.990Z,22.83
2022-08-28T11:55:23.848Z,20.68
2022-08-28T12:05:58.530Z,22.28
2022-08-28T12:10:02.929Z,23.07
2022-08-28T12:14:05.315Z,23.15
2022-08-28T12:18:07.217Z,22.21
2022-08-28T12:22:15.946Z,21.60
2022-08-28T12:26:26.829Z,21.45
2022-08-28T12:30:34.086Z,21.72
2022-08-28T12:34:49.693Z,22.91
2022-08-28T12:38:59.210Z,24.01
2022-08-28T12:43:07.592Z,22.40
2022-08-28T12:47:25.502Z,21.05
2022-08-28T12:51:27.217Z,22.73
2022-08-28T12:55:31.235Z,21.75
2022-08-28T13:00:24.023Z,23.27
2022-08-28T13:04:56.793Z,23.93
2022-08-28T13:09:06.651Z,23.21
2022-08-28T13:13:29.521Z,23.16
2022-08-28T13:17:51.730Z,23.12
2022-08-28T13:22:00.158Z,23.62
2022-08-28T13:26:15.842Z,23.85
2022-08-28T13:30:28.357Z,23.99
2022-08-28T13:34:30.689Z,22.31
2022-08-28T13:38:35.223Z,23.29
2022-08-28T13:42:34.941Z,22.67
2022-08-28T13:46:38.437Z,23.10
2022-08-28T13:50:39.911Z,21.54
2022-08-28T13:54:43.004Z,21.02
2022-08-28T13:58:57.212Z,20.96
2022-08-28T14:03:17.159Z,24.67
2022-08-28T14:07:18.533Z,24.31
2022-08-28T14:11:22.348Z,24.14
2022-08-28T14:15:27.394Z,24.29
2022-08-28T14:19:31.311Z,23.29
2022-08-28T14:23:31.419Z,22.61
2022-08-28T14:27:31.774Z,22.21
2022-08-28T14:31:33.594Z,23.02
2022-08-28T14:35:41.061Z,21.42
2022-08-28T14:39:42.097Z,20.72
2022-08-28T14:43:42.843Z,22.37
2022-08-28T14:47:43.283Z,23.69
2022-08-28T14:51:48.021Z,22.69
2022-08-28T14:55:50.616Z,21.09
2022-08-28T14:59:55.419Z,21.13
2022-08-28T15:04:01.012Z,22.62
2022-08-28T15:08:04.218Z,22.77
2022-08-28T15:12:05.164Z,21.79
2022-08-28T15:16:15.801Z,21.76
2022-08-28T15:20:17.508Z,21.15
2022-08-28T15:24:21.924Z,21.59
2022-08-28T15:28:22.312Z,22.37
2022-08-28T15:32:23.324Z,22.82
2022-08-28T15:36:23.618Z,22.92
2022-08-28T15:40:42.332Z,22.11
2022-08-28T15:44:47.210Z,22.64
2022-08-28T15:48:54.547Z,23.24
2022-08-28T15:52:58.288Z,24.00
2022-08-28T15:57:03.322Z,24.94
2022-08-28T16:01:03.604Z,24.06
2022-08-28T16:05:04.723Z,24.33
2022-08-28T16:09:07.079Z,26.46
2022-08-28T16:13:10.244Z,27.81
2022-08-28T16:17:20.116Z,26.92
2022-08-28T16:21:36.065Z,28.81
2022-08-28T16:25:59.025Z,28.59
2022-08-28T16:30:08.375Z,29.22
2022-08-28T16:34:22.267Z,28.78
2022-08-28T16:38:26.240Z,29.86
2022-08-28T16:42:51.883Z,29.43
2022-08-28T16:47:10.096Z,30.05
2022-08-28T16:51:10.797Z,29.07
2022-08-28T16:55:22.370Z,28.42
2022-08-28T16:59:26.256Z,28.65
2022-08-28T17:03:30.401Z,30.33
2022-08-28T17:07:35.762Z,30.78
2022-08-28T17:11:36.599Z,30.94
2022-08-28T17:15:39.143Z,29.99
2022-08-28T17:19:46.992Z,30.86
2022-08-28T17:23:56.622Z,32.87
2022-08-28T17:27:58.796Z,32.72
2022-08-28T17:32:09.667Z,33.60
2022-08-28T17:36:36.037Z,34.51
2022-08-28T17:41:47.677Z,35.58
2022-08-28T17:45:56.148Z,36.50
2022-08-28T17:50:05.347Z,37.23
2022-08-28T17:54:09.361Z,37.84
2022-08-28T17:58:14.911Z,38.43
2022-08-28T18:02:27.959Z,38.42
2022-08-28T18:06:28.735Z,38.70
2022-08-28T18:10:46.971Z,38.77
2022-08-28T18:14:51.912Z,38.93
2022-08-28T18:19:04.930Z,39.42
2022-08-28T18:23:19.297Z,40.02
2022-08-28T18:27:23.467Z,40.48
2022-08-28T18:31:28.325Z,40.79
2022-08-28T18:35:32.804Z,41.03
2022-08-28T18:39:35.729Z,41.28
2022-08-28T18:43:38.596Z,41.76
2022-08-28T18:47:40.456Z,42.05
2022-08-28T18:51:44.352Z,42.34
2022-08-28T18:55:56.599Z,42.54
2022-08-28T19:00:06.156Z,41.22
2022-08-28T19:04:07.443Z,40.63
2022-08-28T19:08:07.718Z,40.16
2022-08-28T19:12:10.837Z,40.32
2022-08-28T19:16:21.276Z,41.29
2022-08-28T19:20:24.143Z,40.94
2022-08-28T19:24:24.996Z,41.20
2022-08-28T19:28:27.948Z,41.40
2022-08-28T19:32:31.259Z,41.03
2022-08-28T19:36:33.026Z,40.55
2022-08-28T19:40:33.864Z,40.69
2022-08-28T19:44:40.764Z,40.52
2022-08-28T19:48:44.782Z,40.26
2022-08-28T19:52:46.276Z,40.85
2022-08-28T19:56:46.503Z,41.54
2022-08-28T20:00:46.944Z,42.19
2022-08-28T20:04:49.082Z,43.34
2022-08-28T20:08:49.888Z,44.85
2022-08-28T20:12:50.518Z,45.71
2022-08-28T20:16:54.157Z,46.27
2022-08-28T20:20:56.944Z,46.64
2022-08-28T20:24:57.472Z,47.87
2022-08-28T20:29:07.524Z,47.32
2022-08-28T20:33:09.087Z,46.08
2022-08-28T20:37:16.443Z,44.82
2022-08-28T20:41:20.677Z,44.63
2022-08-28T20:45:24.485Z,44.99
2022-08-28T20:49:25.862Z,45.28
2022-08-28T20:53:37.376Z,43.78
2022-08-28T20:57:39.635Z,43.71
2022-08-28T21:01:39.959Z,42.77
2022-08-28T21:05:44.707Z,42.76
2022-08-28T21:10:06.047Z,42.72
2022-08-28T21:14:07.483Z,42.50
2022-08-28T21:18:10.521Z,42.25
2022-08-28T21:22:14.159Z,43.22
2022-08-28T21:26:18.132Z,43.95
2022-08-28T21:30:21.525Z,43.09
2022-08-28T21:34:24.639Z,43.76
2022-08-28T21:38:24.449Z,44.15
2022-08-28T21:42:27.177Z,43.62
2022-08-28T21:46:28.019Z,45.44
2022-08-28T21:50:28.937Z,46.52
2022-08-28T21:54:28.552Z,46.62
2022-08-28T21:58:31.348Z,46.84
2022-08-28T22:02:34.877Z,46.31
2022-08-28T22:06:42.471Z,46.15
2022-08-28T22:10:45.564Z,45.71
2022-08-28T22:14:48.163Z,45.83
2022-08-28T22:18:48.591Z,45.06
2022-08-28T22:23:05.309Z,43.96
2022-08-28T22:27:07.588Z,43.45
2022-08-28T22:31:10.272Z,41.60
2022-08-28T22:35:10.667Z,42.58
2022-08-28T22:39:10.850Z,41.59
2022-08-28T22:43:11.191Z,41.78
2022-08-28T22:47:13.763Z,41.36
2022-08-28T22:51:18.208Z,40.99
2022-08-28T22:55:20.445Z,40.21
2022-08-28T22:59:23.892Z,40.87
2022-08-28T23:03:26.138Z,41.04
2022-08-28T23:07:27.429Z,40.58
2022-08-28T23:11:29.821Z,40.89
2022-08-28T23:15:30.355Z,40.64
2022-08-28T23:19:36.932Z,40.70
2022-08-28T23:23:37.373Z,41.47
2022-08-28T23:27:38.005Z,42.55
2022-08-28T23:31:41.108Z,43.36
2022-08-28T23:35:43.086Z,43.07
2022-08-28T23:39:43.524Z,43.24
2022-08-28T23:43:43.441Z,43.25
2022-08-28T23:47:44.621Z,43.74
2022-08-28T23:51:47.293Z,44.28
2022-08-28T23:55:48.672Z,44.53
2022-08-28T23:59:49.060Z,44.92
